sensor_id;sensor_type;location;lat;lon;timestamp;temperature;humidity
75489;HTU21D;64069;46.396;48.102;2024-01-15T00:00:44;-7.68;89.12
75489;HTU21D;64069;46.396;48.102;2024-01-15T00:03:10;-7.67;89.03
75489;HTU21D;64069;46.396;48.102;2024-01-15T00:05:36;-7.68;89.15
75489;HTU21D;64069;46.396;48.102;2024-01-15T00:08:02;-7.65;89.09
75489;HTU21D;64069;46.396;48.102;2024-01-15T00:10:28;-7.64;89.19
75489;HTU21D;64069;46.396;48.102;2024-01-15T00:12:54;-7.62;89.16
75489;HTU21D;64069;46.396;48.102;2024-01-15T00:15:20;-7.63;89.21
75489;HTU21D;64069;46.396;48.102;2024-01-15T00:17:46;-7.62;89.29
75489;HTU21D;64069;46.396;48.102;2024-01-15T00:20:12;-7.63;89.26
75489;HTU21D;64069;46.396;48.102;2024-01-15T00:22:39;-7.62;89.41
75489;HTU21D;64069;46.396;48.102;2024-01-15T00:25:05;-7.60;89.40
75489;HTU21D;64069;46.396;48.102;2024-01-15T00:27:31;-7.60;89.47
75489;HTU21D;64069;46.396;48.102;2024-01-15T00:29:57;-7.62;89.43
75489;HTU21D;64069;46.396;48.102;2024-01-15T00:32:23;-7.61;89.42
75489;HTU21D;64069;46.396;48.102;2024-01-15T00:34:49;-7.57;89.60
75489;HTU21D;64069;46.396;48.102;2024-01-15T00:37:16;-7.55;89.69
75489;HTU21D;64069;46.396;48.102;2024-01-15T00:39:42;-7.56;89.46
75489;HTU21D;64069;46.396;48.102;2024-01-15T00:42:08;-7.56;89.66
75489;HTU21D;64069;46.396;48.102;2024-01-15T00:44:34;-7.54;89.61
75489;HTU21D;64069;46.396;48.102;2024-01-15T00:47:00;-7.55;89.64
75489;HTU21D;64069;46.396;48.102;2024-01-15T00:49:27;-7.55;89.59
75489;HTU21D;64069;46.396;48.102;2024-01-15T00:51:53;-7.56;89.61
75489;HTU21D;64069;46.396;48.102;2024-01-15T00:54:19;-7.56;89.70
75489;HTU21D;64069;46.396;48.102;2024-01-15T00:56:45;-7.55;89.67
75489;HTU21D;64069;46.396;48.102;2024-01-15T00:59:11;-7.52;89.82
75489;HTU21D;64069;46.396;48.102;2024-01-15T01:01:41;-7.50;89.76
75489;HTU21D;64069;46.396;48.102;2024-01-15T01:04:11;-7.49;89.79
75489;HTU21D;64069;46.396;48.102;2024-01-15T01:06:37;-7.49;89.74
75489;HTU21D;64069;46.396;48.102;2024-01-15T01:09:03;-7.48;89.72
75489;HTU21D;64069;46.396;48.102;2024-01-15T01:11:30;-7.49;89.79
75489;HTU21D;64069;46.396;48.102;2024-01-15T01:13:56;-7.48;89.76
75489;HTU21D;64069;46.396;48.102;2024-01-15T01:16:22;-7.49;89.80
75489;HTU21D;64069;46.396;48.102;2024-01-15T01:18:48;-7.44;89.96
75489;HTU21D;64069;46.396;48.102;2024-01-15T01:21:14;-7.44;89.84
75489;HTU21D;64069;46.396;48.102;2024-01-15T01:23:41;-7.40;89.86
75489;HTU21D;64069;46.396;48.102;2024-01-15T01:26:06;-7.39;89.91
75489;HTU21D;64069;46.396;48.102;2024-01-15T01:28:32;-7.34;90.04
75489;HTU21D;64069;46.396;48.102;2024-01-15T01:30:59;-7.31;90.02
75489;HTU21D;64069;46.396;48.102;2024-01-15T01:33:25;-7.30;90.04
75489;HTU21D;64069;46.396;48.102;2024-01-15T01:35:51;-7.26;90.16
75489;HTU21D;64069;46.396;48.102;2024-01-15T01:38:17;-7.23;90.17
75489;HTU21D;64069;46.396;48.102;2024-01-15T01:40:43;-7.23;90.11
75489;HTU21D;64069;46.396;48.102;2024-01-15T01:43:09;-7.21;90.18
75489;HTU21D;64069;46.396;48.102;2024-01-15T01:45:36;-7.19;90.19
75489;HTU21D;64069;46.396;48.102;2024-01-15T01:48:03;-7.19;90.12
75489;HTU21D;64069;46.396;48.102;2024-01-15T01:50:30;-7.23;90.10
75489;HTU21D;64069;46.396;48.102;2024-01-15T01:52:57;-7.23;90.12
75489;HTU21D;64069;46.396;48.102;2024-01-15T01:55:25;-7.24;90.21
75489;HTU21D;64069;46.396;48.102;2024-01-15T01:57:52;-7.24;90.20
75489;HTU21D;64069;46.396;48.102;2024-01-15T02:00:19;-7.23;90.24
75489;HTU21D;64069;46.396;48.102;2024-01-15T02:02:45;-7.24;90.09
75489;HTU21D;64069;46.396;48.102;2024-01-15T02:05:12;-7.29;90.18
75489;HTU21D;64069;46.396;48.102;2024-01-15T02:07:40;-7.31;90.18
75489;HTU21D;64069;46.396;48.102;2024-01-15T02:10:07;-7.33;90.23
75489;HTU21D;64069;46.396;48.102;2024-01-15T02:12:33;-7.33;90.28
75489;HTU21D;64069;46.396;48.102;2024-01-15T02:14:59;-7.32;90.28
75489;HTU21D;64069;46.396;48.102;2024-01-15T02:17:25;-7.32;90.32
75489;HTU21D;64069;46.396;48.102;2024-01-15T02:19:51;-7.30;90.38
75489;HTU21D;64069;46.396;48.102;2024-01-15T02:22:17;-7.26;90.36
75489;HTU21D;64069;46.396;48.102;2024-01-15T02:24:43;-7.21;90.36
75489;HTU21D;64069;46.396;48.102;2024-01-15T02:27:09;-7.18;90.33
75489;HTU21D;64069;46.396;48.102;2024-01-15T02:29:35;-7.16;90.21
75489;HTU21D;64069;46.396;48.102;2024-01-15T02:32:05;-7.12;90.29
75489;HTU21D;64069;46.396;48.102;2024-01-15T02:34:32;-7.06;90.37
75489;HTU21D;64069;46.396;48.102;2024-01-15T02:36:58;-6.95;90.41
75489;HTU21D;64069;46.396;48.102;2024-01-15T02:39:24;-6.81;90.37
75489;HTU21D;64069;46.396;48.102;2024-01-15T02:41:50;-6.70;90.24
75489;HTU21D;64069;46.396;48.102;2024-01-15T02:44:16;-6.58;90.22
75489;HTU21D;64069;46.396;48.102;2024-01-15T02:46:42;-6.45;90.21
75489;HTU21D;64069;46.396;48.102;2024-01-15T02:49:08;-6.35;90.02
75489;HTU21D;64069;46.396;48.102;2024-01-15T02:51:34;-6.29;89.93
75489;HTU21D;64069;46.396;48.102;2024-01-15T02:54:00;-6.18;89.94
75489;HTU21D;64069;46.396;48.102;2024-01-15T02:56:26;-6.09;89.89
75489;HTU21D;64069;46.396;48.102;2024-01-15T02:58:52;-5.99;89.84
75489;HTU21D;64069;46.396;48.102;2024-01-15T03:01:19;-5.93;89.66
75489;HTU21D;64069;46.396;48.102;2024-01-15T03:03:45;-5.90;89.60
75489;HTU21D;64069;46.396;48.102;2024-01-15T03:06:12;-5.88;89.60
75489;HTU21D;64069;46.396;48.102;2024-01-15T03:08:37;-5.82;89.63
75489;HTU21D;64069;46.396;48.102;2024-01-15T03:11:04;-5.75;89.60
75489;HTU21D;64069;46.396;48.102;2024-01-15T03:13:29;-5.68;89.54
75489;HTU21D;64069;46.396;48.102;2024-01-15T03:15:55;-5.60;89.44
75489;HTU21D;64069;46.396;48.102;2024-01-15T03:18:21;-5.55;89.36
75489;HTU21D;64069;46.396;48.102;2024-01-15T03:20:47;-5.47;89.28
75489;HTU21D;64069;46.396;48.102;2024-01-15T03:23:13;-5.42;89.17
75489;HTU21D;64069;46.396;48.102;2024-01-15T03:25:39;-5.34;89.11
75489;HTU21D;64069;46.396;48.102;2024-01-15T03:28:05;-5.30;89.01
75489;HTU21D;64069;46.396;48.102;2024-01-15T03:30:31;-5.29;88.95
75489;HTU21D;64069;46.396;48.102;2024-01-15T03:32:57;-5.29;88.93
75489;HTU21D;64069;46.396;48.102;2024-01-15T03:35:23;-5.24;88.92
75489;HTU21D;64069;46.396;48.102;2024-01-15T03:37:49;-5.19;88.88
75489;HTU21D;64069;46.396;48.102;2024-01-15T03:40:15;-5.17;88.83
75489;HTU21D;64069;46.396;48.102;2024-01-15T03:42:41;-5.15;88.79
75489;HTU21D;64069;46.396;48.102;2024-01-15T03:45:07;-5.13;88.73
75489;HTU21D;64069;46.396;48.102;2024-01-15T03:47:33;-5.11;88.68
75489;HTU21D;64069;46.396;48.102;2024-01-15T03:49:59;-5.07;88.64
75489;HTU21D;64069;46.396;48.102;2024-01-15T03:52:25;-5.07;88.57
75489;HTU21D;64069;46.396;48.102;2024-01-15T03:54:51;-5.05;88.55
75489;HTU21D;64069;46.396;48.102;2024-01-15T03:57:17;-5.04;88.51
75489;HTU21D;64069;46.396;48.102;2024-01-15T03:59:43;-5.00;88.50
75489;HTU21D;64069;46.396;48.102;2024-01-15T04:02:09;-4.97;88.44
75489;HTU21D;64069;46.396;48.102;2024-01-15T04:04:36;-4.95;88.41
75489;HTU21D;64069;46.396;48.102;2024-01-15T04:07:02;-4.93;88.40
75489;HTU21D;64069;46.396;48.102;2024-01-15T04:09:27;-4.91;88.41
75489;HTU21D;64069;46.396;48.102;2024-01-15T04:11:53;-4.90;88.41
75489;HTU21D;64069;46.396;48.102;2024-01-15T04:14:19;-4.88;88.38
75489;HTU21D;64069;46.396;48.102;2024-01-15T04:16:45;-4.89;88.41
75489;HTU21D;64069;46.396;48.102;2024-01-15T04:19:11;-4.90;88.44
75489;HTU21D;64069;46.396;48.102;2024-01-15T04:21:37;-4.93;88.44
75489;HTU21D;64069;46.396;48.102;2024-01-15T04:24:04;-4.97;88.51
75489;HTU21D;64069;46.396;48.102;2024-01-15T04:26:30;-5.00;88.65
75489;HTU21D;64069;46.396;48.102;2024-01-15T04:28:56;-4.99;88.73
75489;HTU21D;64069;46.396;48.102;2024-01-15T04:31:24;-4.99;88.80
75489;HTU21D;64069;46.396;48.102;2024-01-15T04:33:51;-4.97;88.81
75489;HTU21D;64069;46.396;48.102;2024-01-15T04:36:16;-4.96;88.92
75489;HTU21D;64069;46.396;48.102;2024-01-15T04:38:42;-4.95;88.92
75489;HTU21D;64069;46.396;48.102;2024-01-15T04:41:15;-4.91;88.86
75489;HTU21D;64069;46.396;48.102;2024-01-15T04:43:42;-4.89;88.82
75489;HTU21D;64069;46.396;48.102;2024-01-15T04:46:08;-4.88;88.79
75489;HTU21D;64069;46.396;48.102;2024-01-15T04:48:34;-4.89;88.80
75489;HTU21D;64069;46.396;48.102;2024-01-15T04:51:00;-4.93;88.83
75489;HTU21D;64069;46.396;48.102;2024-01-15T04:53:26;-4.97;88.83
75489;HTU21D;64069;46.396;48.102;2024-01-15T04:55:52;-4.98;88.86
75489;HTU21D;64069;46.396;48.102;2024-01-15T04:58:18;-5.01;88.87
75489;HTU21D;64069;46.396;48.102;2024-01-15T05:00:44;-5.04;88.87
75489;HTU21D;64069;46.396;48.102;2024-01-15T05:03:10;-5.09;88.87
75489;HTU21D;64069;46.396;48.102;2024-01-15T05:05:36;-5.12;88.88
75489;HTU21D;64069;46.396;48.102;2024-01-15T05:08:02;-5.14;88.89
75489;HTU21D;64069;46.396;48.102;2024-01-15T05:10:28;-5.15;88.91
75489;HTU21D;64069;46.396;48.102;2024-01-15T05:12:54;-5.15;88.93
75489;HTU21D;64069;46.396;48.102;2024-01-15T05:15:20;-5.15;88.89
75489;HTU21D;64069;46.396;48.102;2024-01-15T05:17:46;-5.16;88.85
75489;HTU21D;64069;46.396;48.102;2024-01-15T05:20:12;-5.19;88.82
75489;HTU21D;64069;46.396;48.102;2024-01-15T05:22:38;-5.23;88.82
75489;HTU21D;64069;46.396;48.102;2024-01-15T05:25:04;-5.27;88.80
75489;HTU21D;64069;46.396;48.102;2024-01-15T05:27:30;-5.32;88.83
75489;HTU21D;64069;46.396;48.102;2024-01-15T05:29:56;-5.35;88.85
75489;HTU21D;64069;46.396;48.102;2024-01-15T05:32:22;-5.37;88.86
75489;HTU21D;64069;46.396;48.102;2024-01-15T05:34:48;-5.39;88.90
75489;HTU21D;64069;46.396;48.102;2024-01-15T05:37:14;-5.38;88.92
75489;HTU21D;64069;46.396;48.102;2024-01-15T05:39:40;-5.35;88.95
75489;HTU21D;64069;46.396;48.102;2024-01-15T05:42:06;-5.35;88.96
75489;HTU21D;64069;46.396;48.102;2024-01-15T05:44:32;-5.32;88.93
75489;HTU21D;64069;46.396;48.102;2024-01-15T05:46:58;-5.28;88.93
75489;HTU21D;64069;46.396;48.102;2024-01-15T05:49:24;-5.24;88.89
75489;HTU21D;64069;46.396;48.102;2024-01-15T05:51:50;-5.22;88.88
75489;HTU21D;64069;46.396;48.102;2024-01-15T05:54:18;-5.19;88.89
75489;HTU21D;64069;46.396;48.102;2024-01-15T05:56:45;-5.14;88.89
75489;HTU21D;64069;46.396;48.102;2024-01-15T05:59:11;-5.13;88.86
75489;HTU21D;64069;46.396;48.102;2024-01-15T06:01:37;-5.10;88.89
75489;HTU21D;64069;46.396;48.102;2024-01-15T06:04:03;-5.07;88.92
75489;HTU21D;64069;46.396;48.102;2024-01-15T06:06:30;-5.01;88.94
75489;HTU21D;64069;46.396;48.102;2024-01-15T06:08:56;-4.97;88.89
75489;HTU21D;64069;46.396;48.102;2024-01-15T06:11:29;-4.95;88.87
75489;HTU21D;64069;46.396;48.102;2024-01-15T06:13:56;-4.91;88.89
75489;HTU21D;64069;46.396;48.102;2024-01-15T06:16:23;-4.86;88.89
75489;HTU21D;64069;46.396;48.102;2024-01-15T06:18:50;-4.84;88.86
75489;HTU21D;64069;46.396;48.102;2024-01-15T06:21:16;-4.79;88.90
75489;HTU21D;64069;46.396;48.102;2024-01-15T06:23:43;-4.71;88.89
75489;HTU21D;64069;46.396;48.102;2024-01-15T06:26:11;-4.64;88.84
75489;HTU21D;64069;46.396;48.102;2024-01-15T06:28:37;-4.57;88.78
75489;HTU21D;64069;46.396;48.102;2024-01-15T06:31:05;-4.51;88.69
75489;HTU21D;64069;46.396;48.102;2024-01-15T06:33:31;-4.44;88.67
75489;HTU21D;64069;46.396;48.102;2024-01-15T06:35:57;-4.32;88.63
75489;HTU21D;64069;46.396;48.102;2024-01-15T06:38:23;-4.25;88.41
75489;HTU21D;64069;46.396;48.102;2024-01-15T06:40:51;-4.19;88.31
75489;HTU21D;64069;46.396;48.102;2024-01-15T06:43:17;-4.22;88.15
75489;HTU21D;64069;46.396;48.102;2024-01-15T06:45:44;-4.20;88.18
75489;HTU21D;64069;46.396;48.102;2024-01-15T06:48:10;-4.15;88.12
75489;HTU21D;64069;46.396;48.102;2024-01-15T06:50:39;-4.14;88.09
75489;HTU21D;64069;46.396;48.102;2024-01-15T06:53:06;-4.10;88.09
75489;HTU21D;64069;46.396;48.102;2024-01-15T06:55:32;-4.01;88.09
75489;HTU21D;64069;46.396;48.102;2024-01-15T06:57:58;-3.93;87.99
75489;HTU21D;64069;46.396;48.102;2024-01-15T07:00:24;-3.81;87.96
75489;HTU21D;64069;46.396;48.102;2024-01-15T07:02:50;-3.69;87.85
75489;HTU21D;64069;46.396;48.102;2024-01-15T07:05:17;-3.63;87.66
75489;HTU21D;64069;46.396;48.102;2024-01-15T07:07:43;-3.58;87.44
75489;HTU21D;64069;46.396;48.102;2024-01-15T07:10:09;-3.60;87.27
75489;HTU21D;64069;46.396;48.102;2024-01-15T07:12:36;-3.51;87.32
75489;HTU21D;64069;46.396;48.102;2024-01-15T07:15:02;-3.38;87.22
75489;HTU21D;64069;46.396;48.102;2024-01-15T07:17:28;-3.33;87.01
75489;HTU21D;64069;46.396;48.102;2024-01-15T07:19:54;-3.27;86.82
75489;HTU21D;64069;46.396;48.102;2024-01-15T07:22:20;-3.24;86.74
75489;HTU21D;64069;46.396;48.102;2024-01-15T07:24:46;-3.22;86.64
75489;HTU21D;64069;46.396;48.102;2024-01-15T07:27:12;-3.13;86.65
75489;HTU21D;64069;46.396;48.102;2024-01-15T07:29:38;-3.11;86.45
75489;HTU21D;64069;46.396;48.102;2024-01-15T07:32:04;-3.12;86.31
75489;HTU21D;64069;46.396;48.102;2024-01-15T07:34:30;-3.09;86.28
75489;HTU21D;64069;46.396;48.102;2024-01-15T07:36:57;-3.03;86.12
75489;HTU21D;64069;46.396;48.102;2024-01-15T07:39:23;-2.96;86.05
75489;HTU21D;64069;46.396;48.102;2024-01-15T07:41:51;-2.84;86.00
75489;HTU21D;64069;46.396;48.102;2024-01-15T07:44:17;-2.76;85.88
75489;HTU21D;64069;46.396;48.102;2024-01-15T07:46:47;-2.71;85.61
75489;HTU21D;64069;46.396;48.102;2024-01-15T07:49:13;-2.68;85.38
75489;HTU21D;64069;46.396;48.102;2024-01-15T07:51:39;-2.64;85.38
75489;HTU21D;64069;46.396;48.102;2024-01-15T07:54:09;-2.52;85.35
75489;HTU21D;64069;46.396;48.102;2024-01-15T07:56:59;-2.38;84.97
75489;HTU21D;64069;46.396;48.102;2024-01-15T07:59:26;-2.31;84.73
75489;HTU21D;64069;46.396;48.102;2024-01-15T08:01:52;-2.27;84.43
75489;HTU21D;64069;46.396;48.102;2024-01-15T08:04:19;-2.18;84.42
75489;HTU21D;64069;46.396;48.102;2024-01-15T08:06:45;-2.06;84.26
75489;HTU21D;64069;46.396;48.102;2024-01-15T08:09:12;-1.98;84.06
75489;HTU21D;64069;46.396;48.102;2024-01-15T08:11:41;-1.91;83.87
75489;HTU21D;64069;46.396;48.102;2024-01-15T08:14:08;-1.84;83.67
75489;HTU21D;64069;46.396;48.102;2024-01-15T08:16:35;-1.84;83.21
75489;HTU21D;64069;46.396;48.102;2024-01-15T08:19:02;-1.84;83.01
75489;HTU21D;64069;46.396;48.102;2024-01-15T08:21:28;-1.80;82.71
75489;HTU21D;64069;46.396;48.102;2024-01-15T08:24:01;-1.73;82.67
75489;HTU21D;64069;46.396;48.102;2024-01-15T08:26:30;-1.60;82.45
75489;HTU21D;64069;46.396;48.102;2024-01-15T08:28:56;-1.54;82.13
75489;HTU21D;64069;46.396;48.102;2024-01-15T08:31:22;-1.47;82.08
75489;HTU21D;64069;46.396;48.102;2024-01-15T08:33:48;-1.39;82.01
75489;HTU21D;64069;46.396;48.102;2024-01-15T08:36:15;-1.34;81.88
75489;HTU21D;64069;46.396;48.102;2024-01-15T08:38:40;-1.36;81.69
75489;HTU21D;64069;46.396;48.102;2024-01-15T08:41:06;-1.46;81.09
75489;HTU21D;64069;46.396;48.102;2024-01-15T08:43:34;-1.48;81.41
75489;HTU21D;64069;46.396;48.102;2024-01-15T08:46:00;-1.46;81.29
75489;HTU21D;64069;46.396;48.102;2024-01-15T08:48:26;-1.45;80.98
75489;HTU21D;64069;46.396;48.102;2024-01-15T08:50:56;-1.41;80.96
75489;HTU21D;64069;46.396;48.102;2024-01-15T08:53:23;-1.32;80.85
75489;HTU21D;64069;46.396;48.102;2024-01-15T08:55:49;-1.33;80.56
75489;HTU21D;64069;46.396;48.102;2024-01-15T08:58:15;-1.38;80.11
75489;HTU21D;64069;46.396;48.102;2024-01-15T09:00:42;-1.34;79.89
75489;HTU21D;64069;46.396;48.102;2024-01-15T09:03:08;-1.31;79.60
75489;HTU21D;64069;46.396;48.102;2024-01-15T09:05:34;-1.19;79.82
75489;HTU21D;64069;46.396;48.102;2024-01-15T09:08:00;-1.13;79.27
75489;HTU21D;64069;46.396;48.102;2024-01-15T09:10:26;-1.09;79.18
75489;HTU21D;64069;46.396;48.102;2024-01-15T09:12:52;-1.09;78.79
75489;HTU21D;64069;46.396;48.102;2024-01-15T09:15:18;-1.12;78.56
75489;HTU21D;64069;46.396;48.102;2024-01-15T09:17:45;-1.19;77.90
75489;HTU21D;64069;46.396;48.102;2024-01-15T09:20:12;-1.16;77.82
75489;HTU21D;64069;46.396;48.102;2024-01-15T09:22:40;-1.14;77.39
75489;HTU21D;64069;46.396;48.102;2024-01-15T09:25:08;-1.12;77.20
75489;HTU21D;64069;46.396;48.102;2024-01-15T09:27:37;-1.14;76.89
75489;HTU21D;64069;46.396;48.102;2024-01-15T09:30:04;-1.18;76.37
75489;HTU21D;64069;46.396;48.102;2024-01-15T09:32:30;-1.25;76.28
75489;HTU21D;64069;46.396;48.102;2024-01-15T09:34:57;-1.27;75.78
75489;HTU21D;64069;46.396;48.102;2024-01-15T09:37:22;-1.21;76.00
75489;HTU21D;64069;46.396;48.102;2024-01-15T09:39:49;-1.05;76.29
75489;HTU21D;64069;46.396;48.102;2024-01-15T09:42:16;-0.94;75.84
75489;HTU21D;64069;46.396;48.102;2024-01-15T09:44:42;-0.98;75.26
75489;HTU21D;64069;46.396;48.102;2024-01-15T09:47:08;-1.01;75.48
75489;HTU21D;64069;46.396;48.102;2024-01-15T09:49:35;-1.02;75.48
75489;HTU21D;64069;46.396;48.102;2024-01-15T09:52:01;-1.04;75.74
75489;HTU21D;64069;46.396;48.102;2024-01-15T09:54:28;-1.12;75.95
75489;HTU21D;64069;46.396;48.102;2024-01-15T09:56:54;-1.16;76.19
75489;HTU21D;64069;46.396;48.102;2024-01-15T09:59:22;-1.24;76.25
75489;HTU21D;64069;46.396;48.102;2024-01-15T10:01:50;-1.24;76.71
75489;HTU21D;64069;46.396;48.102;2024-01-15T10:04:16;-1.18;76.99
75489;HTU21D;64069;46.396;48.102;2024-01-15T10:06:44;-1.12;77.06
75489;HTU21D;64069;46.396;48.102;2024-01-15T10:09:14;-0.99;77.06
75489;HTU21D;64069;46.396;48.102;2024-01-15T10:11:44;-0.89;76.80
75489;HTU21D;64069;46.396;48.102;2024-01-15T10:14:11;-0.82;76.76
75489;HTU21D;64069;46.396;48.102;2024-01-15T10:16:40;-0.68;76.84
75489;HTU21D;64069;46.396;48.102;2024-01-15T10:19:07;-0.54;76.82
75489;HTU21D;64069;46.396;48.102;2024-01-15T10:21:34;-0.54;76.41
75489;HTU21D;64069;46.396;48.102;2024-01-15T10:24:03;-0.55;76.37
75489;HTU21D;64069;46.396;48.102;2024-01-15T10:26:31;-0.54;76.50
75489;HTU21D;64069;46.396;48.102;2024-01-15T10:28:58;-0.55;76.34
75489;HTU21D;64069;46.396;48.102;2024-01-15T10:31:25;-0.64;76.37
75489;HTU21D;64069;46.396;48.102;2024-01-15T10:33:51;-0.72;76.30
75489;HTU21D;64069;46.396;48.102;2024-01-15T10:36:18;-0.81;76.41
75489;HTU21D;64069;46.396;48.102;2024-01-15T10:38:44;-0.83;76.67
75489;HTU21D;64069;46.396;48.102;2024-01-15T10:41:10;-0.83;76.60
75489;HTU21D;64069;46.396;48.102;2024-01-15T10:43:37;-0.83;76.55
75489;HTU21D;64069;46.396;48.102;2024-01-15T10:46:03;-0.76;76.60
75489;HTU21D;64069;46.396;48.102;2024-01-15T10:48:29;-0.72;76.36
75489;HTU21D;64069;46.396;48.102;2024-01-15T10:50:57;-0.65;75.90
75489;HTU21D;64069;46.396;48.102;2024-01-15T10:53:24;-0.61;75.54
75489;HTU21D;64069;46.396;48.102;2024-01-15T10:55:53;-0.62;75.34
75489;HTU21D;64069;46.396;48.102;2024-01-15T10:58:20;-0.57;75.32
75489;HTU21D;64069;46.396;48.102;2024-01-15T11:00:57;-0.51;75.23
75489;HTU21D;64069;46.396;48.102;2024-01-15T11:03:23;-0.47;74.93
75489;HTU21D;64069;46.396;48.102;2024-01-15T11:05:49;-0.46;74.93
75489;HTU21D;64069;46.396;48.102;2024-01-15T11:08:17;-0.40;75.15
75489;HTU21D;64069;46.396;48.102;2024-01-15T11:10:46;-0.37;75.14
75489;HTU21D;64069;46.396;48.102;2024-01-15T11:16:00;-0.54;74.80
75489;HTU21D;64069;46.396;48.102;2024-01-15T11:18:29;-0.60;75.05
75489;HTU21D;64069;46.396;48.102;2024-01-15T11:23:47;-0.61;75.66
75489;HTU21D;64069;46.396;48.102;2024-01-15T11:26:38;-0.61;75.79
75489;HTU21D;64069;46.396;48.102;2024-01-15T11:32:23;-0.69;76.28
75489;HTU21D;64069;46.396;48.102;2024-01-15T11:34:59;-0.75;76.63
75489;HTU21D;64069;46.396;48.102;2024-01-15T11:40:21;-0.88;77.31
75489;HTU21D;64069;46.396;48.102;2024-01-15T11:42:47;-0.96;77.54
75489;HTU21D;64069;46.396;48.102;2024-01-15T11:45:19;-1.03;77.88
75489;HTU21D;64069;46.396;48.102;2024-01-15T11:50:33;-1.17;78.41
75489;HTU21D;64069;46.396;48.102;2024-01-15T11:53:03;-1.19;78.60
75489;HTU21D;64069;46.396;48.102;2024-01-15T11:55:41;-1.14;78.67
75489;HTU21D;64069;46.396;48.102;2024-01-15T11:58:10;-1.15;78.60
75489;HTU21D;64069;46.396;48.102;2024-01-15T12:00:40;-1.24;78.72
75489;HTU21D;64069;46.396;48.102;2024-01-15T12:03:09;-1.32;78.97
75489;HTU21D;64069;46.396;48.102;2024-01-15T12:05:37;-1.38;79.21
75489;HTU21D;64069;46.396;48.102;2024-01-15T12:08:03;-1.38;79.33
75489;HTU21D;64069;46.396;48.102;2024-01-15T12:10:36;-1.31;79.43
75489;HTU21D;64069;46.396;48.102;2024-01-15T12:13:10;-1.29;79.44
75489;HTU21D;64069;46.396;48.102;2024-01-15T12:15:36;-1.31;79.43
75489;HTU21D;64069;46.396;48.102;2024-01-15T12:18:04;-1.36;79.46
75489;HTU21D;64069;46.396;48.102;2024-01-15T12:20:31;-1.41;79.53
75489;HTU21D;64069;46.396;48.102;2024-01-15T12:22:57;-1.43;79.62
75489;HTU21D;64069;46.396;48.102;2024-01-15T12:25:25;-1.48;79.67
75489;HTU21D;64069;46.396;48.102;2024-01-15T12:27:53;-1.49;79.73
75489;HTU21D;64069;46.396;48.102;2024-01-15T12:30:20;-1.54;79.82
75489;HTU21D;64069;46.396;48.102;2024-01-15T12:32:46;-1.61;79.97
75489;HTU21D;64069;46.396;48.102;2024-01-15T12:35:15;-1.70;80.06
75489;HTU21D;64069;46.396;48.102;2024-01-15T12:37:42;-1.78;80.28
75489;HTU21D;64069;46.396;48.102;2024-01-15T12:40:10;-1.83;80.40
75489;HTU21D;64069;46.396;48.102;2024-01-15T12:42:42;-1.90;80.45
75489;HTU21D;64069;46.396;48.102;2024-01-15T12:45:12;-1.99;80.51
75489;HTU21D;64069;46.396;48.102;2024-01-15T12:47:39;-2.05;80.56
75489;HTU21D;64069;46.396;48.102;2024-01-15T12:50:12;-2.13;80.63
75489;HTU21D;64069;46.396;48.102;2024-01-15T12:52:40;-2.16;80.64
75489;HTU21D;64069;46.396;48.102;2024-01-15T12:55:08;-2.24;80.52
75489;HTU21D;64069;46.396;48.102;2024-01-15T12:57:35;-2.30;80.62
75489;HTU21D;64069;46.396;48.102;2024-01-15T13:00:01;-2.36;80.59
75489;HTU21D;64069;46.396;48.102;2024-01-15T13:02:28;-2.47;80.68
75489;HTU21D;64069;46.396;48.102;2024-01-15T13:04:54;-2.53;80.81
75489;HTU21D;64069;46.396;48.102;2024-01-15T13:07:21;-2.58;80.85
75489;HTU21D;64069;46.396;48.102;2024-01-15T13:09:47;-2.67;80.90
75489;HTU21D;64069;46.396;48.102;2024-01-15T13:12:13;-2.77;81.07
75489;HTU21D;64069;46.396;48.102;2024-01-15T13:14:39;-2.87;81.20
75489;HTU21D;64069;46.396;48.102;2024-01-15T13:17:06;-2.93;81.42
75489;HTU21D;64069;46.396;48.102;2024-01-15T13:19:32;-3.00;81.57
75489;HTU21D;64069;46.396;48.102;2024-01-15T13:21:59;-3.07;81.74
75489;HTU21D;64069;46.396;48.102;2024-01-15T13:24:25;-3.16;81.89
75489;HTU21D;64069;46.396;48.102;2024-01-15T13:26:51;-3.21;82.16
75489;HTU21D;64069;46.396;48.102;2024-01-15T13:29:17;-3.30;82.36
75489;HTU21D;64069;46.396;48.102;2024-01-15T13:31:44;-3.37;82.56
75489;HTU21D;64069;46.396;48.102;2024-01-15T13:34:12;-3.42;82.94
75489;HTU21D;64069;46.396;48.102;2024-01-15T13:36:38;-3.46;83.27
75489;HTU21D;64069;46.396;48.102;2024-01-15T13:39:04;-3.50;83.39
75489;HTU21D;64069;46.396;48.102;2024-01-15T13:41:35;-3.50;83.34
75489;HTU21D;64069;46.396;48.102;2024-01-15T13:44:01;-3.50;83.32
75489;HTU21D;64069;46.396;48.102;2024-01-15T13:46:27;-3.48;83.41
75489;HTU21D;64069;46.396;48.102;2024-01-15T13:48:53;-3.47;83.43
75489;HTU21D;64069;46.396;48.102;2024-01-15T13:51:22;-3.43;83.45
75489;HTU21D;64069;46.396;48.102;2024-01-15T13:53:48;-3.45;83.55
75489;HTU21D;64069;46.396;48.102;2024-01-15T13:56:15;-3.46;83.62
75489;HTU21D;64069;46.396;48.102;2024-01-15T13:58:41;-3.46;83.74
75489;HTU21D;64069;46.396;48.102;2024-01-15T14:01:07;-3.47;83.90
75489;HTU21D;64069;46.396;48.102;2024-01-15T14:03:33;-3.50;83.91
75489;HTU21D;64069;46.396;48.102;2024-01-15T14:06:00;-3.48;83.90
75489;HTU21D;64069;46.396;48.102;2024-01-15T14:08:26;-3.48;83.94
75489;HTU21D;64069;46.396;48.102;2024-01-15T14:10:53;-3.47;84.00
75489;HTU21D;64069;46.396;48.102;2024-01-15T14:13:20;-3.46;84.00
75489;HTU21D;64069;46.396;48.102;2024-01-15T14:15:46;-3.48;84.12
75489;HTU21D;64069;46.396;48.102;2024-01-15T14:18:14;-3.50;84.26
75489;HTU21D;64069;46.396;48.102;2024-01-15T14:20:40;-3.50;84.31
75489;HTU21D;64069;46.396;48.102;2024-01-15T14:23:06;-3.51;84.45
75489;HTU21D;64069;46.396;48.102;2024-01-15T14:25:32;-3.54;84.70
75489;HTU21D;64069;46.396;48.102;2024-01-15T14:27:58;-3.56;84.92
75489;HTU21D;64069;46.396;48.102;2024-01-15T14:30:24;-3.58;85.06
75489;HTU21D;64069;46.396;48.102;2024-01-15T14:32:50;-3.57;85.18
75489;HTU21D;64069;46.396;48.102;2024-01-15T14:35:16;-3.58;85.41
75489;HTU21D;64069;46.396;48.102;2024-01-15T14:37:42;-3.60;85.40
75489;HTU21D;64069;46.396;48.102;2024-01-15T14:40:08;-3.58;85.47
75489;HTU21D;64069;46.396;48.102;2024-01-15T14:42:36;-3.57;85.47
75489;HTU21D;64069;46.396;48.102;2024-01-15T14:45:05;-3.55;85.54
75489;HTU21D;64069;46.396;48.102;2024-01-15T14:47:40;-3.54;85.55
75489;HTU21D;64069;46.396;48.102;2024-01-15T14:50:08;-3.52;85.56
75489;HTU21D;64069;46.396;48.102;2024-01-15T14:52:36;-3.51;85.57
75489;HTU21D;64069;46.396;48.102;2024-01-15T14:55:02;-3.50;85.61
75489;HTU21D;64069;46.396;48.102;2024-01-15T14:57:29;-3.48;85.70
75489;HTU21D;64069;46.396;48.102;2024-01-15T14:59:55;-3.47;85.67
75489;HTU21D;64069;46.396;48.102;2024-01-15T15:02:21;-3.43;85.70
75489;HTU21D;64069;46.396;48.102;2024-01-15T15:04:47;-3.41;85.84
75489;HTU21D;64069;46.396;48.102;2024-01-15T15:07:13;-3.43;85.90
75489;HTU21D;64069;46.396;48.102;2024-01-15T15:09:39;-3.43;86.19
75489;HTU21D;64069;46.396;48.102;2024-01-15T15:12:05;-3.45;86.34
75489;HTU21D;64069;46.396;48.102;2024-01-15T15:14:31;-3.45;86.38